TimeEDT,TemperatureF,Dew PointF,Humidity,Sea Level PressureIn,VisibilityMPH,Wind Direction,Wind SpeedMPH,Gust SpeedMPH,PrecipitationIn,Events,Conditions,WindDirDegrees,DateUTC
12:58 AM,56.3,56.1,99,30.15,4.0,East,5.8,-,0.02,,Overcast,90,2013-10-07 04:58:00
1:58 AM,57.2,56.8,99,30.13,10.0,East,8.1,-,0.01,,Overcast,80,2013-10-07 05:58:00
2:58 AM,57.6,57.4,99,30.10,6.0,ENE,6.9,-,N/A,,Overcast,70,2013-10-07 06:58:00
3:58 AM,58.1,57.7,99,30.08,4.0,Variable,4.6,-,N/A,,Overcast,0,2013-10-07 07:58:00
4:58 AM,58.8,58.5,99,30.07,6.0,ENE,4.6,-,0.01,,Overcast,70,2013-10-07 08:58:00
5:28 AM,59.0,59.0,100,30.05,9.0,ENE,3.5,-,N/A,,Overcast,60,2013-10-07 09:28:00
5:33 AM,59.0,59.0,100,30.06,9.0,East,2.3,-,N/A,,Overcast,80,2013-10-07 09:33:00
5:38 AM,59.0,59.0,100,30.06,9.0,NE,2.3,-,N/A,,Overcast,50,2013-10-07 09:38:00
5:53 AM,59.0,59.0,100,30.05,7.0,East,2.3,-,N/A,,Overcast,90,2013-10-07 09:53:00
5:58 AM,59.0,58.6,99,30.06,5.0,East,3.5,-,N/A,,Overcast,90,2013-10-07 09:58:00
6:33 AM,59.0,59.0,100,30.05,2.5,NNW,2.3,-,N/A,,Overcast,340,2013-10-07 10:33:00
6:38 AM,59.0,59.0,100,30.05,1.8,North,2.3,-,N/A,,Overcast,10,2013-10-07 10:38:00
6:43 AM,59.0,59.0,100,30.05,1.5,North,2.3,-,N/A,,Overcast,10,2013-10-07 10:43:00
6:48 AM,59.0,59.0,100,30.05,1.0,North,2.3,-,N/A,,Mist,360,2013-10-07 10:48:00
6:53 AM,59.0,59.0,100,30.05,0.8,NE,2.3,-,N/A,,Mist,50,2013-10-07 10:53:00
6:58 AM,59.5,59.2,99,30.05,0.8,NE,3.5,-,N/A,,Mist,40,2013-10-07 10:58:00
7:03 AM,59.0,59.0,100,30.04,0.8,NE,3.5,-,N/A,,Mist,50,2013-10-07 11:03:00
7:18 AM,59.0,59.0,100,30.05,0.8,Calm,Calm,-,N/A,,Mist,0,2013-10-07 11:18:00
7:38 AM,59.0,59.0,100,30.04,0.5,NE,2.3,-,N/A,Fog,Fog,40,2013-10-07 11:38:00
7:43 AM,59.0,59.0,100,30.04,0.5,ENE,1.2,-,N/A,Fog,Fog,60,2013-10-07 11:43:00
7:58 AM,60.1,60.1,100,30.06,0.5,Calm,Calm,-,N/A,Fog,Fog,0,2013-10-07 11:58:00
8:08 AM,60.8,60.8,100,30.05,0.5,Calm,Calm,-,N/A,Fog,Fog,0,2013-10-07 12:08:00
8:18 AM,60.8,60.8,100,30.04,0.2,Calm,Calm,-,N/A,Fog,Fog,0,2013-10-07 12:18:00
8:38 AM,60.8,60.8,100,30.04,0.5,ESE,2.3,-,N/A,Fog,Fog,110,2013-10-07 12:38:00
8:43 AM,60.8,60.8,100,30.04,0.5,SE,3.5,-,N/A,Fog,Fog,140,2013-10-07 12:43:00
8:58 AM,61.5,61.5,100,30.05,0.5,SE,3.5,-,N/A,Fog,Fog,140,2013-10-07 12:58:00
9:08 AM,62.6,62.6,100,30.02,0.5,Variable,3.5,-,N/A,Fog,Fog,0,2013-10-07 13:08:00
9:13 AM,62.6,62.6,100,30.03,0.8,Variable,3.5,-,N/A,,Mist,0,2013-10-07 13:13:00
9:18 AM,64.4,64.4,100,30.03,1.0,SE,4.6,-,N/A,,Mist,130,2013-10-07 13:18:00
9:23 AM,64.4,64.4,100,30.02,1.0,SE,4.6,-,N/A,,Mist,130,2013-10-07 13:23:00
9:28 AM,64.4,64.4,100,30.02,1.2,SE,3.5,-,N/A,,Overcast,130,2013-10-07 13:28:00
9:33 AM,64.4,64.4,100,30.02,1.5,SE,4.6,-,N/A,,Overcast,130,2013-10-07 13:33:00
9:38 AM,64.4,64.4,100,30.01,1.8,ESE,3.5,-,N/A,,Overcast,120,2013-10-07 13:38:00
9:48 AM,64.4,64.4,100,30.01,1.5,SE,4.6,-,N/A,,Overcast,140,2013-10-07 13:48:00
9:53 AM,64.4,64.4,100,30.01,1.0,ESE,4.6,-,N/A,,Mist,120,2013-10-07 13:53:00
9:58 AM,64.2,64.2,100,30.02,1.0,SE,4.6,-,N/A,,Mist,130,2013-10-07 13:58:00
10:03 AM,64.4,64.4,100,30.01,1.0,SE,6.9,-,N/A,,Mist,130,2013-10-07 14:03:00
10:08 AM,64.4,64.4,100,30.01,0.8,SE,8.1,-,N/A,,Mist,140,2013-10-07 14:08:00
10:13 AM,64.4,64.4,100,30.00,0.5,SE,6.9,-,N/A,Fog,Fog,130,2013-10-07 14:13:00
10:33 AM,64.4,64.4,100,30.00,0.5,SE,8.1,-,N/A,Fog,Fog,130,2013-10-07 14:33:00
10:38 AM,64.4,64.4,100,30.00,0.2,SE,10.4,-,N/A,Fog,Fog,140,2013-10-07 14:38:00
10:40 AM,64.4,64.4,100,29.99,0.2,SE,10.4,-,N/A,Fog,Light Drizzle,140,2013-10-07 14:40:00
10:45 AM,64.4,64.4,100,29.99,0.5,SE,9.2,-,N/A,Fog,Light Drizzle,140,2013-10-07 14:45:00
10:50 AM,64.4,64.4,100,29.99,0.5,SE,10.4,-,N/A,Fog,Light Drizzle,130,2013-10-07 14:50:00
10:55 AM,64.4,64.4,100,29.98,1.2,SE,10.4,-,N/A,,Light Drizzle,140,2013-10-07 14:55:00
10:57 AM,64.4,64.4,100,29.98,2.0,SE,10.4,-,N/A,,Overcast,140,2013-10-07 14:57:00
10:58 AM,63.7,63.7,100,29.99,2.0,SE,10.4,-,0.00,,Overcast,140,2013-10-07 14:58:00
10:59 AM,64.4,64.4,100,29.98,2.5,SE,10.4,-,N/A,,Drizzle,140,2013-10-07 14:59:00
11:04 AM,64.4,64.4,100,29.98,3.0,SE,11.5,-,N/A,,Light Drizzle,140,2013-10-07 15:04:00
11:14 AM,64.4,64.4,100,29.97,5.0,SE,12.7,-,N/A,Rain,Light Rain,140,2013-10-07 15:14:00
11:18 AM,64.4,64.4,100,29.97,7.0,SE,13.8,-,N/A,,Overcast,140,2013-10-07 15:18:00
11:53 AM,64.4,64.4,100,29.95,2.0,SE,12.7,18.4,N/A,,Overcast,140,2013-10-07 15:53:00
11:58 AM,64.8,64.8,100,29.96,1.8,SSE,15.0,-,0.01,,Overcast,150,2013-10-07 15:58:00
12:08 PM,64.4,64.4,100,29.95,2.5,SSE,16.1,20.7,N/A,,Overcast,150,2013-10-07 16:08:00
12:13 PM,66.2,66.2,100,29.94,3.0,SSE,13.8,20.7,N/A,,Overcast,150,2013-10-07 16:13:00
12:28 PM,66.2,66.2,100,29.94,5.0,SSE,12.7,-,N/A,,Overcast,150,2013-10-07 16:28:00
12:58 PM,65.7,65.7,100,29.93,5.0,SSE,12.7,-,N/A,,Overcast,150,2013-10-07 16:58:00
1:38 PM,66.2,66.2,100,29.89,7.0,SE,16.1,-,N/A,,Overcast,140,2013-10-07 17:38:00
1:58 PM,66.6,66.6,100,29.89,9.0,SE,18.4,-,N/A,,Overcast,140,2013-10-07 17:58:00
2:13 PM,68.0,68.0,100,29.87,10.0,SE,18.4,24.2,N/A,,Mostly Cloudy,130,2013-10-07 18:13:00
2:18 PM,68.0,68.0,100,29.87,10.0,SE,18.4,25.3,N/A,,Scattered Clouds,130,2013-10-07 18:18:00
2:48 PM,68.0,68.0,100,29.85,10.0,SE,20.7,-,N/A,,Mostly Cloudy,140,2013-10-07 18:48:00
2:54 PM,68.0,68.0,100,29.85,10.0,SE,19.6,-,N/A,,Mostly Cloudy,140,2013-10-07 18:54:00
2:58 PM,68.5,67.5,96,29.86,10.0,SE,17.3,-,N/A,,Mostly Cloudy,140,2013-10-07 18:58:00
3:03 PM,69.8,68.0,94,29.85,10.0,SE,16.1,23.0,N/A,,Mostly Cloudy,140,2013-10-07 19:03:00
3:18 PM,71.6,66.2,83,29.84,10.0,SSE,20.7,-,N/A,,Scattered Clouds,150,2013-10-07 19:18:00
3:58 PM,70.5,66.6,87,29.83,10.0,SSE,20.7,24.2,0.01,,Partly Cloudy,150,2013-10-07 19:58:00
4:58 PM,70.5,66.2,86,29.81,10.0,SSE,16.1,27.6,N/A,,Mostly Cloudy,160,2013-10-07 20:58:00
5:58 PM,70.3,65.8,86,29.81,10.0,SSE,13.8,-,N/A,,Mostly Cloudy,160,2013-10-07 21:58:00
6:38 PM,71.6,66.2,83,29.80,10.0,SSE,17.3,21.9,N/A,,Mostly Cloudy,160,2013-10-07 22:38:00
6:48 PM,71.6,66.2,83,29.80,10.0,South,13.8,-,N/A,,Mostly Cloudy,170,2013-10-07 22:48:00
6:58 PM,71.4,65.8,82,29.80,10.0,SSE,12.7,-,N/A,,Overcast,160,2013-10-07 22:58:00
7:58 PM,70.3,65.7,85,29.81,10.0,South,20.7,29.9,N/A,,Mostly Cloudy,180,2013-10-07 23:58:00
8:11 PM,71.6,66.2,83,29.79,5.0,SW,16.1,31.1,N/A,,Haze,220,2013-10-08 00:11:00
8:12 PM,71.6,66.2,83,29.79,5.0,SW,16.1,31.1,N/A,Rain,Light Rain,220,2013-10-08 00:12:00
8:30 PM,71.6,66.2,83,29.81,10.0,SSW,12.7,21.9,N/A,,Mostly Cloudy,200,2013-10-08 00:30:00
8:43 PM,69.8,66.2,88,29.80,10.0,SSW,10.4,17.3,N/A,,Light Drizzle,210,2013-10-08 00:43:00
8:57 PM,69.8,66.2,88,29.80,10.0,SW,11.5,-,N/A,,Mostly Cloudy,220,2013-10-08 00:57:00
8:58 PM,70.2,66.7,89,29.81,10.0,SW,10.4,-,0.01,,Mostly Cloudy,220,2013-10-08 00:58:00
9:03 PM,69.8,66.2,88,29.80,10.0,SSW,10.4,-,N/A,,Overcast,210,2013-10-08 01:03:00
9:13 PM,69.8,66.2,88,29.80,10.0,SSW,13.8,23.0,N/A,,Overcast,210,2013-10-08 01:13:00
9:42 PM,69.8,64.4,83,29.80,10.0,West,16.1,21.9,N/A,,Scattered Clouds,260,2013-10-08 01:42:00
9:47 PM,68.0,64.4,88,29.83,3.0,WNW,16.1,23.0,N/A,Rain,Heavy Rain,290,2013-10-08 01:47:00
9:49 PM,68.0,62.6,83,29.83,2.5,WNW,16.1,23.0,N/A,Rain,Rain,290,2013-10-08 01:49:00
9:50 PM,68.0,62.6,83,29.83,2.5,West,16.1,33.4,N/A,Rain,Rain,280,2013-10-08 01:50:00
9:54 PM,64.4,62.6,94,29.83,5.0,WNW,16.1,33.4,N/A,Rain,Light Rain,290,2013-10-08 01:54:00
9:58 PM,64.4,61.5,90,29.84,9.0,WNW,15.0,24.2,0.04,Rain,Light Rain,300,2013-10-08 01:58:00
10:33 PM,60.8,57.2,88,29.86,10.0,West,10.4,-,N/A,,Light Drizzle,280,2013-10-08 02:33:00
10:36 PM,60.8,57.2,88,29.86,10.0,West,8.1,-,N/A,,Overcast,270,2013-10-08 02:36:00
10:58 PM,61.0,57.6,88,29.88,10.0,West,8.1,-,0.00,,Overcast,270,2013-10-08 02:58:00
11:58 PM,60.3,56.5,87,29.88,10.0,West,9.2,-,N/A,,Overcast,260,2013-10-08 03:58:00